createdAt,value
2023-04-09T00:01:02.958Z,18.65
2023-04-09T00:03:05.864Z,17.10
2023-04-09T00:05:09.159Z,16.15
2023-04-09T00:07:11.932Z,16.60
2023-04-09T00:09:14.740Z,16.45
2023-04-09T00:11:17.537Z,17.30
2023-04-09T00:13:31.934Z,17.35
2023-04-09T00:15:41.724Z,17.60
2023-04-09T00:17:44.451Z,17.00
2023-04-09T00:19:47.180Z,17.27
2023-04-09T00:21:49.850Z,14.77
2023-04-09T00:23:52.527Z,16.08
2023-04-09T00:25:55.209Z,17.08
2023-04-09T00:27:58.154Z,18.25
2023-04-09T00:30:02.235Z,17.38
2023-04-09T00:32:05.032Z,18.25
2023-04-09T00:34:07.739Z,16.52
2023-04-09T00:36:10.450Z,15.35
2023-04-09T00:38:13.214Z,16.88
2023-04-09T00:40:16.261Z,16.70
2023-04-09T00:42:18.969Z,14.25
2023-04-09T00:44:21.654Z,16.65
2023-04-09T00:46:26.037Z,16.60
2023-04-09T00:48:28.937Z,15.55
2023-04-09T00:50:31.666Z,16.08
2023-04-09T00:52:34.860Z,14.93
2023-04-09T00:54:37.875Z,16.67
2023-04-09T00:56:41.404Z,15.98
2023-04-09T00:58:44.250Z,15.20
2023-04-09T01:00:47.008Z,16.98
2023-04-09T01:02:52.885Z,16.75
2023-04-09T01:04:55.993Z,14.25
2023-04-09T01:07:04.893Z,14.65
2023-04-09T01:09:15.734Z,14.55
2023-04-09T01:11:32.496Z,16.38
2023-04-09T01:13:43.591Z,15.60
2023-04-09T01:15:50.460Z,14.35
2023-04-09T01:18:06.303Z,17.45
2023-04-09T01:20:13.090Z,14.93
2023-04-09T01:24:42.716Z,16.08
2023-04-09T01:26:58.326Z,14.40
2023-04-09T01:29:06.450Z,14.18
2023-04-09T01:31:13.981Z,15.00
2023-04-09T01:33:18.902Z,16.38
2023-04-09T01:35:22.527Z,15.18
2023-04-09T01:37:26.464Z,14.20
2023-04-09T01:39:30.010Z,16.23
2023-04-09T01:41:35.361Z,18.77
2023-04-09T01:43:39.168Z,15.52
2023-04-09T01:45:45.325Z,15.98
2023-04-09T01:47:48.692Z,17.17
2023-04-09T01:49:52.666Z,16.60
2023-04-09T01:51:55.608Z,16.00
2023-04-09T01:53:58.565Z,14.60
2023-04-09T01:56:02.100Z,17.33
2023-04-09T01:58:04.883Z,15.63
2023-04-09T02:00:09.344Z,14.45
2023-04-09T02:02:19.863Z,16.75
2023-04-09T02:04:25.814Z,16.00
2023-04-09T02:06:35.828Z,14.20
2023-04-09T02:08:38.885Z,15.55
2023-04-09T02:10:41.899Z,14.00
2023-04-09T02:12:49.990Z,14.48
2023-04-09T02:14:54.316Z,13.70
2023-04-09T02:16:57.813Z,14.40
2023-04-09T02:19:02.135Z,13.93
2023-04-09T02:21:05.866Z,15.70
2023-04-09T02:23:08.525Z,16.40
2023-04-09T02:25:11.245Z,14.60
2023-04-09T02:27:13.916Z,15.50
2023-04-09T02:29:16.685Z,14.70
2023-04-09T02:31:19.493Z,14.80
2023-04-09T02:33:22.476Z,14.40
2023-04-09T02:35:26.679Z,15.00
2023-04-09T02:37:29.388Z,16.38
2023-04-09T02:39:32.021Z,15.50
2023-04-09T02:41:34.784Z,16.92
2023-04-09T02:43:37.957Z,14.38
2023-04-09T02:45:40.707Z,14.50
2023-04-09T02:47:43.426Z,17.90
2023-04-09T02:49:46.233Z,16.63
2023-04-09T02:51:50.351Z,15.40
2023-04-09T02:53:53.054Z,17.02
2023-04-09T02:55:55.763Z,15.68
2023-04-09T02:57:58.462Z,15.60
2023-04-09T03:00:01.159Z,16.38
2023-04-09T03:02:04.063Z,15.05
2023-04-09T03:04:06.924Z,14.13
2023-04-09T03:06:09.747Z,17.90
2023-04-09T03:08:13.969Z,16.10
2023-04-09T03:10:16.709Z,15.30
2023-04-09T03:12:19.464Z,16.15
2023-04-09T03:14:22.180Z,15.52
2023-04-09T03:16:25.992Z,14.38
2023-04-09T03:18:28.909Z,15.77
2023-04-09T03:20:31.639Z,14.00
2023-04-09T03:22:37.194Z,15.68
2023-04-09T03:24:41.288Z,15.80
2023-04-09T03:26:44.133Z,15.70
2023-04-09T03:28:46.904Z,18.60
2023-04-09T03:30:49.708Z,15.90
2023-04-09T03:32:52.490Z,15.23
2023-04-09T03:34:55.328Z,15.52
2023-04-09T03:36:58.954Z,15.50
2023-04-09T03:39:01.861Z,17.58
2023-04-09T03:41:06.071Z,17.48
2023-04-09T03:43:08.773Z,16.20
2023-04-09T03:45:12.057Z,15.80
2023-04-09T03:47:14.705Z,18.42
2023-04-09T03:49:17.386Z,16.95
2023-04-09T03:51:20.118Z,15.85
2023-04-09T03:53:22.795Z,17.23
2023-04-09T03:55:25.474Z,17.25
2023-04-09T03:57:29.503Z,16.95
2023-04-09T03:59:32.237Z,17.98
2023-04-09T04:01:35.124Z,16.58
2023-04-09T04:03:38.203Z,17.63
2023-04-09T04:05:41.182Z,18.80
2023-04-09T04:07:44.972Z,18.80
2023-04-09T04:09:47.663Z,20.63
2023-04-09T04:11:50.334Z,19.00
2023-04-09T04:13:55.800Z,17.90
2023-04-09T04:15:58.732Z,19.65
2023-04-09T04:18:01.471Z,17.77
2023-04-09T04:20:04.281Z,16.83
2023-04-09T04:22:06.981Z,19.00
2023-04-09T04:24:09.714Z,17.33
2023-04-09T04:26:12.572Z,17.98
2023-04-09T04:28:15.346Z,18.90
2023-04-09T04:30:19.570Z,17.85
2023-04-09T04:32:22.596Z,17.70
2023-04-09T04:34:25.384Z,16.45
2023-04-09T04:36:28.058Z,18.27
2023-04-09T04:38:30.747Z,17.90
2023-04-09T04:40:33.429Z,19.40
2023-04-09T04:42:36.161Z,17.38
2023-04-09T04:44:38.826Z,18.55
2023-04-09T04:46:42.911Z,17.77
2023-04-09T04:48:45.576Z,15.55
2023-04-09T04:50:48.317Z,19.67
2023-04-09T04:52:51.052Z,18.80
2023-04-09T04:54:53.836Z,17.38
2023-04-09T04:56:56.941Z,18.55
2023-04-09T04:58:59.617Z,14.35
2023-04-09T05:01:02.305Z,17.35
2023-04-09T05:03:07.004Z,14.93
2023-04-09T05:05:10.017Z,15.95
2023-04-09T05:07:12.754Z,19.05
2023-04-09T05:09:15.658Z,18.40
2023-04-09T05:11:18.316Z,15.88
2023-04-09T05:13:20.993Z,16.38
2023-04-09T05:15:23.696Z,15.10
2023-04-09T05:17:26.414Z,15.63
2023-04-09T05:19:30.543Z,16.90
2023-04-09T05:21:33.256Z,19.73
2023-04-09T05:23:35.914Z,19.52
2023-04-09T05:25:38.635Z,16.85
2023-04-09T05:27:41.469Z,17.65
2023-04-09T05:29:44.148Z,17.20
2023-04-09T05:31:46.834Z,16.63
2023-04-09T05:33:49.614Z,18.83
2023-04-09T05:35:53.700Z,18.25
2023-04-09T05:37:56.946Z,17.35
2023-04-09T05:39:59.666Z,14.38
2023-04-09T05:42:02.452Z,16.52
2023-04-09T05:44:05.764Z,18.10
2023-04-09T05:46:08.430Z,16.20
2023-04-09T05:48:11.246Z,16.05
2023-04-09T05:50:14.047Z,16.55
2023-04-09T05:52:18.065Z,16.13
2023-04-09T05:54:20.746Z,14.93
2023-04-09T05:56:23.634Z,17.55
2023-04-09T05:58:27.363Z,15.95
2023-04-09T06:00:30.156Z,16.02
2023-04-09T06:02:32.951Z,16.65
2023-04-09T06:04:35.834Z,14.60
2023-04-09T06:06:39.614Z,15.27
2023-04-09T06:08:44.934Z,19.55
2023-04-09T06:10:47.616Z,14.90
2023-04-09T06:12:50.495Z,15.25
2023-04-09T06:14:53.340Z,15.77
2023-04-09T06:16:56.213Z,16.40
2023-04-09T06:18:58.914Z,16.13
2023-04-09T06:21:05.240Z,16.80
2023-04-09T06:23:08.054Z,18.98
2023-04-09T06:25:12.246Z,17.27
2023-04-09T06:27:15.006Z,16.75
2023-04-09T06:29:17.911Z,15.00
2023-04-09T06:31:20.599Z,14.07
2023-04-09T06:33:23.616Z,16.45
2023-04-09T06:35:26.352Z,17.10
2023-04-09T06:37:29.010Z,14.25
2023-04-09T06:39:32.956Z,17.25
2023-04-09T06:41:37.118Z,16.85
2023-04-09T06:43:39.844Z,13.68
2023-04-09T06:45:42.647Z,14.88
2023-04-09T06:47:45.427Z,14.65
2023-04-09T06:49:48.079Z,13.57
2023-04-09T06:51:51.989Z,13.45
2023-04-09T06:53:55.089Z,13.52
2023-04-09T06:55:58.067Z,14.00
2023-04-09T06:58:02.777Z,14.27
2023-04-09T07:00:06.211Z,14.45
2023-04-09T07:02:09.301Z,13.90
2023-04-09T07:04:12.202Z,13.90
2023-04-09T07:06:14.893Z,13.52
2023-04-09T07:08:17.602Z,13.88
2023-04-09T07:10:20.330Z,13.30
2023-04-09T07:12:29.314Z,13.73
2023-04-09T07:14:33.365Z,12.27
2023-04-09T07:16:36.154Z,11.80
2023-04-09T07:18:38.944Z,12.63
2023-04-09T07:20:41.553Z,10.65
2023-04-09T07:22:44.300Z,11.02
2023-04-09T07:24:47.112Z,9.90
2023-04-09T07:26:52.050Z,9.60
2023-04-09T07:28:56.096Z,10.32
2023-04-09T07:31:02.856Z,8.77
2023-04-09T07:33:05.610Z,8.85
2023-04-09T07:35:11.278Z,8.18
2023-04-09T07:37:14.089Z,10.32
2023-04-09T07:39:17.370Z,9.73
2023-04-09T07:41:20.891Z,9.35
2023-04-09T07:43:23.577Z,8.82
2023-04-09T07:45:26.489Z,9.93
2023-04-09T07:47:31.300Z,8.68
2023-04-09T07:49:34.176Z,9.82
2023-04-09T07:51:36.837Z,9.57
2023-04-09T07:53:39.576Z,9.50
2023-04-09T07:55:42.448Z,8.68
2023-04-09T07:57:45.352Z,10.98
2023-04-09T07:59:48.086Z,10.50
2023-04-09T08:01:51.056Z,10.45
2023-04-09T08:03:55.316Z,10.80
2023-04-09T08:05:58.087Z,11.98
2023-04-09T08:08:00.785Z,12.52
2023-04-09T08:10:03.536Z,10.23
2023-04-09T08:12:06.430Z,10.20
2023-04-09T08:14:12.828Z,11.65
2023-04-09T08:16:15.522Z,10.07
2023-04-09T08:18:18.210Z,9.75
2023-04-09T08:20:22.404Z,9.50
2023-04-09T08:22:25.075Z,10.25
2023-04-09T08:24:28.202Z,9.95
2023-04-09T08:26:30.970Z,8.32
2023-04-09T08:28:33.672Z,8.15
2023-04-09T08:30:36.341Z,9.15
2023-04-09T08:32:39.048Z,10.15
2023-04-09T08:34:41.798Z,9.85
2023-04-09T08:36:49.767Z,8.88
2023-04-09T08:38:53.267Z,9.93
2023-04-09T08:40:56.069Z,10.85
2023-04-09T08:43:00.609Z,11.13
2023-04-09T08:45:05.180Z,9.60
2023-04-09T08:47:10.169Z,12.00
2023-04-09T08:49:13.323Z,9.95
2023-04-09T08:51:16.418Z,11.15
2023-04-09T08:53:22.271Z,11.85
2023-04-09T08:55:25.294Z,10.48
2023-04-09T08:57:28.158Z,10.10
2023-04-09T08:59:31.233Z,8.63
2023-04-09T09:01:34.063Z,10.05
2023-04-09T09:03:55.159Z,8.63
2023-04-09T09:05:58.921Z,10.75
2023-04-09T09:08:02.264Z,9.68
2023-04-09T09:10:07.404Z,11.02
2023-04-09T09:12:10.152Z,10.38
2023-04-09T09:14:14.079Z,9.02
2023-04-09T09:16:17.943Z,8.77
2023-04-09T09:18:20.837Z,8.73
2023-04-09T09:20:24.375Z,9.68
2023-04-09T09:22:27.238Z,8.13
2023-04-09T09:24:30.367Z,8.40
2023-04-09T09:26:39.582Z,8.85
2023-04-09T09:28:42.636Z,8.68
2023-04-09T09:30:49.184Z,8.27
2023-04-09T09:32:55.670Z,8.02
2023-04-09T09:35:06.606Z,8.85
2023-04-09T09:37:27.924Z,8.35
2023-04-09T09:39:44.294Z,9.15
2023-04-09T09:41:48.854Z,7.25
2023-04-09T09:43:51.950Z,8.43
2023-04-09T09:45:54.969Z,7.45
2023-04-09T09:47:57.715Z,9.23
2023-04-09T09:50:00.565Z,7.40
2023-04-09T09:52:06.421Z,8.85
2023-04-09T09:54:10.722Z,8.60
2023-04-09T09:56:17.911Z,8.48
2023-04-09T09:58:27.430Z,9.68
2023-04-09T10:00:33.274Z,8.20
2023-04-09T10:02:45.135Z,8.75
2023-04-09T10:04:50.611Z,7.85
2023-04-09T10:06:53.977Z,8.80
2023-04-09T10:08:59.213Z,8.52
2023-04-09T10:11:02.364Z,8.98
2023-04-09T10:13:08.193Z,8.32
2023-04-09T10:15:12.990Z,8.82
2023-04-09T10:17:16.181Z,9.43
2023-04-09T10:19:19.467Z,7.57
2023-04-09T10:21:32.590Z,7.50
2023-04-09T10:23:39.559Z,9.35
2023-04-09T10:25:42.727Z,8.77
2023-04-09T10:27:48.312Z,8.95
2023-04-09T10:29:52.829Z,8.82
2023-04-09T10:32:05.630Z,8.30
2023-04-09T10:34:10.762Z,8.35
2023-04-09T10:36:14.204Z,6.93
2023-04-09T10:38:16.999Z,8.57
2023-04-09T10:40:21.649Z,8.27
2023-04-09T10:42:30.246Z,7.53
2023-04-09T10:44:32.986Z,6.78
2023-04-09T10:46:37.379Z,7.32
2023-04-09T10:48:41.438Z,7.60
2023-04-09T10:50:45.329Z,9.40
2023-04-09T10:52:52.972Z,7.95
2023-04-09T10:54:55.914Z,7.32
2023-04-09T10:57:19.200Z,9.18
2023-04-09T10:59:21.842Z,8.48
2023-04-09T11:01:26.524Z,8.25
2023-04-09T11:03:30.623Z,9.32
2023-04-09T11:05:38.125Z,8.07
2023-04-09T11:07:46.148Z,8.13
2023-04-09T11:09:48.829Z,6.90
2023-04-09T11:11:53.863Z,8.10
2023-04-09T11:14:01.489Z,7.55
2023-04-09T11:16:07.003Z,7.53
2023-04-09T11:18:10.911Z,8.25
2023-04-09T11:20:14.571Z,7.50
2023-04-09T11:22:18.742Z,8.07
2023-04-09T11:24:21.503Z,8.73
2023-04-09T11:26:35.911Z,6.38
2023-04-09T11:28:42.291Z,6.85
2023-04-09T11:30:46.800Z,7.63
2023-04-09T11:32:50.131Z,10.02
2023-04-09T11:34:53.739Z,7.22
2023-04-09T11:36:58.927Z,8.73
2023-04-09T11:39:04.017Z,8.00
2023-04-09T11:41:06.820Z,8.02
2023-04-09T11:43:09.610Z,7.45
2023-04-09T11:45:13.112Z,7.47
2023-04-09T11:47:16.913Z,7.32
2023-04-09T11:49:19.647Z,7.72
2023-04-09T11:51:22.455Z,7.88
2023-04-09T11:53:31.776Z,8.10
2023-04-09T11:55:35.987Z,8.82
2023-04-09T11:57:41.644Z,7.05
2023-04-09T11:59:44.666Z,8.27
2023-04-09T12:01:51.191Z,8.82
2023-04-09T12:05:56.970Z,7.90
2023-04-09T12:08:01.698Z,6.82
2023-04-09T12:10:06.194Z,7.28
2023-04-09T12:12:11.390Z,6.90
2023-04-09T12:14:16.144Z,8.30
2023-04-09T12:16:21.105Z,7.40
2023-04-09T12:18:24.370Z,9.82
2023-04-09T12:20:31.946Z,8.40
2023-04-09T12:22:36.129Z,8.60
2023-04-09T12:24:38.763Z,7.78
2023-04-09T12:26:41.431Z,8.07
2023-04-09T12:28:45.492Z,8.07
2023-04-09T12:30:49.120Z,8.27
2023-04-09T12:32:53.019Z,7.88
2023-04-09T12:34:55.817Z,7.18
2023-04-09T12:36:58.562Z,8.15
2023-04-09T12:39:01.563Z,8.00
2023-04-09T12:41:04.344Z,6.47
2023-04-09T12:43:07.099Z,7.47
2023-04-09T12:45:13.957Z,7.53
2023-04-09T12:47:16.658Z,7.65
2023-04-09T12:49:19.908Z,7.18
2023-04-09T12:51:22.973Z,8.20
2023-04-09T12:53:25.720Z,6.72
2023-04-09T12:55:28.905Z,6.78
2023-04-09T12:57:31.896Z,8.05
2023-04-09T12:59:34.636Z,6.28
2023-04-09T13:01:40.184Z,7.13
2023-04-09T13:03:44.263Z,7.40
2023-04-09T13:05:47.294Z,7.88
2023-04-09T13:07:50.009Z,7.82
2023-04-09T13:09:52.919Z,7.50
2023-04-09T13:11:56.008Z,6.70
2023-04-09T13:13:58.763Z,7.90
2023-04-09T13:16:02.143Z,6.97
2023-04-09T13:18:06.633Z,6.15
2023-04-09T13:20:10.374Z,6.68
2023-04-09T13:22:13.109Z,6.97
2023-04-09T13:24:15.835Z,7.57
2023-04-09T13:26:18.528Z,6.78
2023-04-09T13:28:21.336Z,7.07
2023-04-09T13:30:24.264Z,6.00
2023-04-09T13:32:27.071Z,7.40
2023-04-09T13:34:31.213Z,6.88
2023-04-09T13:36:33.991Z,7.22
2023-04-09T13:38:36.721Z,6.28
2023-04-09T13:40:39.403Z,7.00
2023-04-09T13:42:42.068Z,6.80
2023-04-09T13:44:45.563Z,8.50
2023-04-09T13:46:48.294Z,8.20
2023-04-09T13:48:51.133Z,7.22
2023-04-09T13:50:55.380Z,6.30
2023-04-09T13:52:58.173Z,7.00
2023-04-09T13:55:01.236Z,7.07
2023-04-09T13:57:04.566Z,7.88
2023-04-09T13:59:07.308Z,7.43
2023-04-09T14:01:10.418Z,6.28
2023-04-09T14:03:14.229Z,7.63
2023-04-09T14:05:17.097Z,5.85
2023-04-09T14:07:21.216Z,6.05
2023-04-09T14:09:24.274Z,7.63
2023-04-09T14:11:27.019Z,7.05
2023-04-09T14:13:30.408Z,6.90
2023-04-09T14:15:33.379Z,5.93
2023-04-09T14:17:36.264Z,5.75
2023-04-09T14:19:39.170Z,6.28
2023-04-09T14:21:42.059Z,7.03
2023-04-09T14:23:46.334Z,6.68
2023-04-09T14:25:49.000Z,6.30
2023-04-09T14:27:52.119Z,6.18
2023-04-09T14:29:54.797Z,6.60
2023-04-09T14:31:57.692Z,6.32
2023-04-09T14:34:00.386Z,5.68
2023-04-09T14:36:03.101Z,6.90
2023-04-09T14:38:05.847Z,6.15
2023-04-09T14:40:10.683Z,6.85
2023-04-09T14:42:14.296Z,7.53
2023-04-09T14:44:17.034Z,7.60
2023-04-09T14:46:20.316Z,6.72
2023-04-09T14:48:23.021Z,7.40
2023-04-09T14:50:25.786Z,7.65
2023-04-09T14:52:30.318Z,6.15
2023-04-09T14:54:33.805Z,7.38
2023-04-09T14:56:37.991Z,7.35
2023-04-09T14:58:40.651Z,8.95
2023-04-09T15:00:44.864Z,6.90
2023-04-09T15:02:48.195Z,7.63
2023-04-09T15:04:51.187Z,8.57
2023-04-09T15:06:53.888Z,8.30
2023-04-09T15:08:56.584Z,9.38
2023-04-09T15:10:59.369Z,6.32
2023-04-09T15:13:03.405Z,7.57
2023-04-09T15:15:08.085Z,7.22
2023-04-09T15:17:10.810Z,7.22
2023-04-09T15:19:13.464Z,5.82
2023-04-09T15:21:16.092Z,6.78
2023-04-09T15:23:18.788Z,7.38
2023-04-09T15:25:21.556Z,6.03
2023-04-09T15:27:24.281Z,6.47
2023-04-09T15:29:28.422Z,8.45
2023-04-09T15:31:31.419Z,6.53
2023-04-09T15:33:34.179Z,7.55
2023-04-09T15:35:37.743Z,7.35
2023-04-09T15:37:40.546Z,7.43
2023-04-09T15:39:43.606Z,9.38
2023-04-09T15:41:46.537Z,7.03
2023-04-09T15:43:49.187Z,7.85
2023-04-09T15:45:53.307Z,7.18
2023-04-09T15:47:56.071Z,9.93
2023-04-09T15:49:59.336Z,9.13
2023-04-09T15:52:02.003Z,7.35
2023-04-09T15:54:04.946Z,7.75
2023-04-09T15:56:09.786Z,8.73
2023-04-09T15:58:13.669Z,6.90
2023-04-09T16:00:16.521Z,7.50
2023-04-09T16:02:20.775Z,7.25
2023-04-09T16:04:23.530Z,8.35
2023-04-09T16:06:26.297Z,6.57
2023-04-09T16:08:28.962Z,7.72
2023-04-09T16:10:31.862Z,7.93
2023-04-09T16:12:34.539Z,9.60
2023-04-09T16:14:37.852Z,8.95
2023-04-09T16:16:40.785Z,10.55
2023-04-09T16:18:44.837Z,8.00
2023-04-09T16:20:47.595Z,8.93
2023-04-09T16:22:50.400Z,8.30
2023-04-09T16:24:53.142Z,7.80
2023-04-09T16:26:56.410Z,7.75
2023-04-09T16:29:02.952Z,7.53
2023-04-09T16:33:08.741Z,7.82
2023-04-09T16:35:12.832Z,7.45
2023-04-09T16:37:15.665Z,7.10
2023-04-09T16:39:19.499Z,6.90
2023-04-09T16:41:22.180Z,7.47
2023-04-09T16:43:26.053Z,6.22
2023-04-09T16:45:30.002Z,8.88
2023-04-09T16:47:32.816Z,7.13
2023-04-09T16:49:35.498Z,6.63
2023-04-09T16:51:39.626Z,6.45
2023-04-09T16:53:42.305Z,7.13
2023-04-09T16:55:45.061Z,6.45
2023-04-09T16:57:47.707Z,7.70
2023-04-09T16:59:50.784Z,6.55
2023-04-09T17:01:53.654Z,8.18
2023-04-09T17:03:57.266Z,7.30
2023-04-09T17:06:00.059Z,7.18
2023-04-09T17:08:04.148Z,8.13
2023-04-09T17:10:08.241Z,7.25
2023-04-09T17:12:11.218Z,8.48
2023-04-09T17:14:14.045Z,7.55
2023-04-09T17:16:18.112Z,6.50
2023-04-09T17:18:20.856Z,7.43
2023-04-09T17:20:24.894Z,6.88
2023-04-09T17:22:27.688Z,6.93
2023-04-09T17:24:31.827Z,7.03
2023-04-09T17:26:34.688Z,6.38
2023-04-09T17:28:37.391Z,7.78
2023-04-09T17:30:40.099Z,6.43
2023-04-09T17:32:44.033Z,6.70
2023-04-09T17:34:48.127Z,7.57
2023-04-09T17:36:56.439Z,9.25
2023-04-09T17:38:59.166Z,7.57
2023-04-09T17:41:04.293Z,7.55
2023-04-09T17:43:08.046Z,7.93
2023-04-09T17:45:11.844Z,6.55
2023-04-09T17:47:14.654Z,7.55
2023-04-09T17:49:17.345Z,7.63
2023-04-09T17:51:20.829Z,7.28
2023-04-09T17:53:23.620Z,7.15
2023-04-09T17:55:26.326Z,8.98
2023-04-09T17:57:30.310Z,7.78
2023-04-09T17:59:34.352Z,6.88
2023-04-09T18:01:37.225Z,7.45
2023-04-09T18:03:40.705Z,8.82
2023-04-09T18:05:43.664Z,8.77
2023-04-09T18:07:46.494Z,7.55
2023-04-09T18:09:49.565Z,8.77
2023-04-09T18:11:56.235Z,7.30
2023-04-09T18:16:03.161Z,8.40
2023-04-09T18:18:05.923Z,8.00
2023-04-09T18:20:09.278Z,10.13
2023-04-09T18:22:12.025Z,8.95
2023-04-09T18:24:14.716Z,8.63
2023-04-09T18:26:17.465Z,7.20
2023-04-09T18:28:20.151Z,8.38
2023-04-09T18:30:24.688Z,7.72
2023-04-09T18:32:27.422Z,8.27
2023-04-09T18:34:30.091Z,9.25
2023-04-09T18:36:32.842Z,7.78
2023-04-09T18:38:36.915Z,8.68
2023-04-09T18:40:42.292Z,9.73
2023-04-09T18:42:45.307Z,8.10
2023-04-09T18:44:47.954Z,9.23
2023-04-09T18:46:52.200Z,9.25
2023-04-09T18:48:55.272Z,8.35
2023-04-09T18:50:59.032Z,9.65
2023-04-09T18:53:03.377Z,9.95
2023-04-09T18:55:06.904Z,9.75
2023-04-09T18:57:09.538Z,10.40
2023-04-09T18:59:12.298Z,10.40
2023-04-09T19:01:15.383Z,9.50
2023-04-09T19:03:20.092Z,9.65
2023-04-09T19:05:23.014Z,8.57
2023-04-09T19:07:25.839Z,10.65
2023-04-09T19:09:28.777Z,8.32
2023-04-09T19:11:31.619Z,8.73
2023-04-09T19:13:34.328Z,10.43
2023-04-09T19:15:38.391Z,9.25
2023-04-09T19:17:41.482Z,8.27
2023-04-09T19:19:45.507Z,10.82
2023-04-09T19:21:48.212Z,9.80
2023-04-09T19:23:50.959Z,10.02
2023-04-09T19:25:55.217Z,9.63
2023-04-09T19:27:57.986Z,9.38
2023-04-09T19:30:01.151Z,12.23
2023-04-09T19:32:03.960Z,8.02
2023-04-09T19:34:07.054Z,10.00
2023-04-09T19:36:12.927Z,9.23
2023-04-09T19:38:16.448Z,9.02
2023-04-09T19:40:19.324Z,10.30
2023-04-09T19:42:22.309Z,10.57
2023-04-09T19:44:25.072Z,9.90
2023-04-09T19:46:27.778Z,11.40
2023-04-09T19:48:30.640Z,9.73
2023-04-09T19:50:35.669Z,10.68
2023-04-09T19:52:41.245Z,10.38
2023-04-09T19:54:44.009Z,11.10
2023-04-09T19:56:46.713Z,8.90
2023-04-09T19:58:49.360Z,10.35
2023-04-09T20:00:52.310Z,9.25
2023-04-09T20:02:55.677Z,11.05
2023-04-09T20:04:58.591Z,9.20
2023-04-09T20:07:01.413Z,9.23
2023-04-09T20:09:05.707Z,9.02
2023-04-09T20:11:08.517Z,8.88
2023-04-09T20:13:11.324Z,9.65
2023-04-09T20:15:14.684Z,9.68
2023-04-09T20:17:19.792Z,10.77
2023-04-09T20:19:22.585Z,9.75
2023-04-09T20:21:25.320Z,9.35
2023-04-09T20:23:28.059Z,10.55
2023-04-09T20:25:35.051Z,9.57
2023-04-09T20:27:38.613Z,10.75
2023-04-09T20:29:41.304Z,9.63
2023-04-09T20:31:44.398Z,11.35
2023-04-09T20:33:47.216Z,11.15
2023-04-09T20:35:50.427Z,9.48
2023-04-09T20:37:54.851Z,9.57
2023-04-09T20:39:58.768Z,11.80
2023-04-09T20:42:02.895Z,11.50
2023-04-09T20:44:05.949Z,10.93
2023-04-09T20:46:08.756Z,10.93
2023-04-09T20:48:11.956Z,10.88
2023-04-09T20:50:14.805Z,10.38
2023-04-09T20:52:17.737Z,10.82
2023-04-09T20:54:22.740Z,11.35
2023-04-09T20:56:25.668Z,11.05
2023-04-09T20:58:29.801Z,11.90
2023-04-09T21:00:32.455Z,11.38
2023-04-09T21:02:35.654Z,13.68
2023-04-09T21:04:39.037Z,10.68
2023-04-09T21:06:41.858Z,11.50
2023-04-09T21:08:44.715Z,10.98
2023-04-09T21:10:47.549Z,11.27
2023-04-09T21:12:50.320Z,10.68
2023-04-09T21:14:54.590Z,13.23
2023-04-09T21:16:57.462Z,11.25
2023-04-09T21:19:06.813Z,13.32
2023-04-09T21:21:09.777Z,11.00
2023-04-09T21:23:12.779Z,12.07
2023-04-09T21:25:15.810Z,11.90
2023-04-09T21:27:18.644Z,11.93
2023-04-09T21:29:21.636Z,12.88
2023-04-09T21:31:25.995Z,11.65
2023-04-09T21:33:30.008Z,13.68
2023-04-09T21:35:33.649Z,12.43
2023-04-09T21:37:37.513Z,13.80
2023-04-09T21:39:40.243Z,13.63
2023-04-09T21:41:42.992Z,12.85
2023-04-09T21:43:45.862Z,15.85
2023-04-09T21:45:48.702Z,14.77
2023-04-09T21:47:52.907Z,14.02
2023-04-09T21:49:56.534Z,12.98
2023-04-09T21:52:00.597Z,14.27
2023-04-09T21:54:04.993Z,13.35
2023-04-09T21:56:08.550Z,12.35
2023-04-09T21:58:11.894Z,12.93
2023-04-09T22:00:16.375Z,14.40
2023-04-09T22:02:19.589Z,15.10
2023-04-09T22:04:23.926Z,13.45
2023-04-09T22:06:27.080Z,15.27
2023-04-09T22:08:30.454Z,13.85
2023-04-09T22:10:33.234Z,14.93
2023-04-09T22:12:37.382Z,15.52
2023-04-09T22:14:41.790Z,14.55
2023-04-09T22:16:45.050Z,14.82
2023-04-09T22:18:48.019Z,14.07
2023-04-09T22:20:52.351Z,14.05
2023-04-09T22:22:55.264Z,15.35
2023-04-09T22:24:58.015Z,15.05
2023-04-09T22:27:01.460Z,14.07
2023-04-09T22:29:06.756Z,14.32
2023-04-09T22:31:09.765Z,16.05
2023-04-09T22:33:12.494Z,12.75
2023-04-09T22:35:18.083Z,14.60
2023-04-09T22:37:22.088Z,14.73
2023-04-09T22:39:24.962Z,15.98
2023-04-09T22:41:27.745Z,14.40
2023-04-09T22:43:30.628Z,13.05
2023-04-09T22:45:33.311Z,15.25
2023-04-09T22:47:36.110Z,15.60
2023-04-09T22:49:38.906Z,14.60
2023-04-09T22:51:42.602Z,14.98
2023-04-09T22:53:47.255Z,15.95
2023-04-09T22:55:51.728Z,15.55
2023-04-09T22:57:54.990Z,13.85
2023-04-09T22:59:57.839Z,13.15
2023-04-09T23:02:00.794Z,15.10
2023-04-09T23:04:03.647Z,15.75
2023-04-09T23:06:06.937Z,14.68
2023-04-09T23:08:09.975Z,15.25
2023-04-09T23:10:16.201Z,16.48
2023-04-09T23:12:19.004Z,16.33
2023-04-09T23:14:21.807Z,15.93
2023-04-09T23:16:24.635Z,15.80
2023-04-09T23:18:27.380Z,16.10
2023-04-09T23:20:30.410Z,17.00
2023-04-09T23:22:33.163Z,14.40
2023-04-09T23:24:35.914Z,13.15
2023-04-09T23:26:39.909Z,14.52
2023-04-09T23:28:42.720Z,14.45
2023-04-09T23:30:45.502Z,15.52
2023-04-09T23:32:48.959Z,17.10
2023-04-09T23:34:52.105Z,16.38
2023-04-09T23:36:54.906Z,15.27
2023-04-09T23:38:57.603Z,15.27
2023-04-09T23:41:00.283Z,17.15
2023-04-09T23:43:04.548Z,14.57
2023-04-09T23:45:08.365Z,13.52
2023-04-09T23:47:12.020Z,14.27
2023-04-09T23:49:16.135Z,14.40
2023-04-09T23:51:19.271Z,14.18
2023-04-09T23:53:22.033Z,13.45
2023-04-09T23:55:24.822Z,12.02
2023-04-09T23:57:27.736Z,15.90
2023-04-09T23:59:35.364Z,14.90
